AirNav   Duncan Aviation - Near you to keep you flying
 
 857 users online  

TS71 Flying B Ranch Airport
Ovilla, Texas, USA

GOING TO OVILLA?


FAA INFORMATION EFFECTIVE 11 AUGUST 2022

Location

FAA Identifier: TS71
Lat/Long: 32-31-40.4940N 096-56-38.0110W
32-31.674900N 096-56.633517W
32.5279150,-96.9438919
(estimated)
Elevation: 780 ft. / 238 m (estimated)
Variation: 06E (1984)
From city: 3 miles SW of OVILLA, TX
Time zone: UTC -5 (UTC -6 during Standard Time)
Zip code: 76065

Airport Operations

Airport use: Private use. Permission required prior to landing
Activation date: 06/1984
Control tower: no
ARTCC: FORT WORTH CENTER
FSS: FORT WORTH FLIGHT SERVICE STATION
Attendance: UNATNDD
Segmented circle: no

Airport Communications

WX AWOS-3 at JWY (4 nm S): 119.575 (972-937-4747)
WX ASOS at RBD (10 nm N): PHONE 214-330-5317
WX ASOS at GKY (11 nm NW): 127.375 (817-557-0251)
WX AWOS-3P at GPM (11 nm NW): 118.475 (972-606-1433)
WX AWOS-3PT at LNC (12 nm E): 118.975 (972-227-0471)
WX AWOS-3 at 49T (16 nm NE): 135.425 (214-670-1243)
WX AWOS-3PT at FWS (19 nm W): 120.025 (817-426-4172)
WX ASOS at DAL (20 nm N): PHONE 214-353-1551

Nearby radio navigation aids

VOR radial/distance  VOR name  Freq  Var
TTTr161/21.0MAVERICK VOR/DME113.1006E
CVEr179/21.8COWBOY VOR/DME116.2006E
FUZr145/24.7RANGER VORTAC115.7006E

 
NDB name  Hdg/Dist  Freq  Var  ID
MESQUITE228/26.924803EPQF .--. --.- ..-.

Airport Services

Runway Information

Runway 18/36

Dimensions: 2400 x 70 ft. / 732 x 21 m
Surface: turf
RUNWAY 18  RUNWAY 36
Traffic pattern: leftleft
Obstructions: 50 ft. pline35 ft. trees

Airport Ownership and Management from official FAA records

Ownership: Privately-owned
Owner: VIRGINIA L. BEAN
517 W CENTERVILLE ROAD
GARLAND, TX 75041-5445
Phone 214-775-3577
Manager: VIRGINIA L. BEAN
517 W CENTERVILLE ROAD
GARLAND, TX 75041-5445
Phone 214-775-3577

Airport Operational Statistics

Aircraft based on the field: 1
Single engine airplanes: 1
    

Additional Remarks

A52 PLINE ACROSS S END OF RWY
FOR CD CTC REGIONAL APCH AT 972-615-2799.

Instrument Procedures

There are no published instrument procedures at TS71.

Some nearby airports with instrument procedures:

KJWY - Mid-Way Regional Airport (4 nm S)
KRBD - Dallas Executive Airport (10 nm N)
KGKY - Arlington Municipal Airport (11 nm NW)
KGPM - Grand Prairie Municipal Airport (11 nm NW)
KLNC - Lancaster Regional Airport (12 nm E)
F41 - Ennis Municipal Airport (19 nm SE)
KFWS - Fort Worth Spinks Airport (19 nm W)
KDAL - Dallas Love Field Airport (20 nm N)
 
Loc | Ops | Rwys | IFR | FBO | Links
Com | Nav | Svcs | Stats | Notes

City of Fort Worth
 
Area around TS71 (Flying B Ranch Airport)
 
Road maps at: MapQuest Bing Google
 
Aerial photo
No photo
 
Sectional chart

 
Airport distance calculator
Flying to Flying B Ranch Airport? Find the distance to fly.

From to TS71

Sunrise and sunset
Times for 16-Aug-2022
 Local
(UTC-5)
 Zulu
(UTC)
Morning civil twilight06:2711:27
Sunrise06:5311:53
Sunset20:1101:11
Evening civil twilight20:3701:37

Current date and time
Zulu (UTC)  17-Aug-2022 04:07:53
Local (UTC-5)  16-Aug-2022 23:07:53
 
METAR
KJWY 
5nm S 
170355Z AUTO 18003KT 10SM CLR 29/17 A2993 RMK AO2 T02880166
KRBD 
10nm NE 
170353Z AUTO 20005KT 10SM CLR 31/16 A2990 RMK AO2 SLP114 T03110161
KGKY 
11nm NW 
170353Z AUTO 17004KT 10SM CLR 32/17 A2990 RMK AO2 SLP114 T03170167
KGPM 
12nm NW 
170355Z AUTO 18004KT 10SM CLR 33/16 A2991 RMK AO2 T03260157
KLNC 
12nm E 
170355Z AUTO 00000KT 10SM CLR 29/17 A2991 RMK AO2 T02870170
KFWS 
18nm W 
170355Z AUTO 16003KT 10SM CLR 28/16 A2992 RMK AO2 T02840162
KDAL 
20nm N 
170353Z 19004KT 10SM BKN250 34/17 A2989 RMK AO2 SLP111 T03390172
TAF
KGKY 
11nm NW 
162108Z 1621/1718 20006KT P6SM BKN250 FM171300 25007KT P6SM FEW180 FM171700 32010KT P6SM FEW070 BKN100
KDAL 
20nm N 
162108Z 1621/1718 VRB05KT P6SM BKN250 FM171200 25007KT P6SM FEW180 FM171700 32010KT P6SM FEW070 BKN100
NOTAMs
Click for the latest NOTAMs
NOTAMs are issued by the DoD/FAA and will open in a separate window not controlled by AirNav.

 

 
 

Would you like to see your business listed on this page?

 If your business provides an interesting product or service to pilots, flight crews, aircraft, or users of the Flying B Ranch Airport, you should consider listing it here.  To start the listing process, click on the button below
 
Add a business
 

Other Pages about Flying B Ranch Airport

Update a link
 
Copyright © AirNav, LLC. All rights reserved. Privacy Policy  Contact